CST,Max TemperatureF,Mean TemperatureF,Min TemperatureF,Max Dew PointF,MeanDew PointF,Min DewpointF,Max Humidity, Mean Humidity, Min Humidity, Max Sea Level PressureIn, Mean Sea Level PressureIn, Min Sea Level PressureIn, Max VisibilityMiles, Mean VisibilityMiles, Min VisibilityMiles, Max Wind SpeedMPH, Mean Wind SpeedMPH, Max Gust SpeedMPH,PrecipitationIn, CloudCover, Events, WindDirDegrees
2014-1-1,25,20,15,19,13,10,84,76,68,30.43,30.23,29.99,10,8,1,16,8,21,0.04,8,Snow,13
2014-1-2,39,23,7,23,15,5,100,76,52,30.38,30.30,30.18,10,8,0,13,6,16,0.00,1,Fog,267
2014-1-3,61,38,14,30,22,11,92,61,29,30.14,29.80,29.53,10,10,7,17,6,23,0.00,1,,192
2014-1-4,37,25,12,29,12,-1,92,64,36,30.30,30.02,29.69,10,10,10,26,12,33,0.00,5,,356
2014-1-5,13,1,-11,4,-3,-18,80,68,56,30.70,30.44,30.21,10,7,1,22,11,30,0.02,7,Snow,353
2014-1-6,19,2,-15,7,-8,-20,81,60,39,30.64,30.49,30.20,10,10,10,16,6,22,0.00,1,,288
2014-1-7,47,29,10,20,14,6,80,57,33,30.17,30.11,30.03,10,10,10,15,7,17,0.00,3,,303
2014-1-8,31,24,16,20,18,14,92,75,58,30.31,30.23,30.15,10,10,10,18,7,23,T,7,,128
2014-1-9,38,27,16,23,19,13,92,72,52,30.22,29.99,29.74,10,7,5,18,10,22,0.00,3,,176
2014-1-10,43,30,16,34,25,14,100,78,55,29.79,29.69,29.58,10,8,3,23,7,30,0.01,6,Rain,292
2014-1-11,54,37,20,27,23,18,85,57,28,29.99,29.82,29.61,10,10,10,17,9,24,0.00,1,,262
2014-1-12,53,38,23,30,25,20,78,60,42,29.86,29.62,29.48,10,10,10,22,7,25,0.00,2,,308
2014-1-13,51,33,14,25,20,13,88,58,28,29.94,29.88,29.81,10,10,10,24,7,33,0.00,3,,301
2014-1-14,42,31,19,29,19,14,88,63,37,30.38,30.24,29.90,10,10,9,33,15,43,T,2,,326
2014-1-15,57,35,13,25,20,10,96,62,27,30.32,30.07,29.90,10,10,10,23,9,29,0.00,4,,285
2014-1-16,43,31,18,27,16,6,84,53,22,30.27,30.11,29.97,10,10,10,46,24,60,0.00,1,,321
2014-1-17,46,27,8,19,14,5,84,59,33,30.28,30.13,29.95,10,10,10,17,6,21,0.00,0,,302
2014-1-18,46,30,13,23,17,9,84,59,33,30.20,30.08,29.91,10,10,10,37,13,53,0.00,0,,323
2014-1-19,66,40,13,23,16,9,80,47,13,30.10,29.97,29.84,10,10,10,24,9,29,0.00,0,,310
2014-1-20,48,30,12,20,15,6,77,52,26,30.50,30.23,29.90,10,10,10,33,13,46,0.00,1,,331
2014-1-21,57,30,3,23,11,-1,86,51,16,30.49,30.27,30.03,10,10,10,25,10,33,0.00,3,,309
2014-1-22,38,21,4,21,12,-12,75,60,44,30.66,30.30,30.12,10,10,10,26,11,32,T,5,,345
2014-1-23,23,8,-8,6,-6,-13,78,51,23,30.91,30.73,30.47,10,10,10,17,7,23,0.00,0,,259
2014-1-24,59,33,7,30,18,4,76,52,28,30.43,30.11,29.96,10,10,10,32,14,39,0.00,3,,295
2014-1-25,56,43,30,34,28,20,78,57,35,30.11,29.95,29.77,10,10,10,18,10,28,0.00,4,,290
2014-1-26,57,35,12,29,16,-7,84,57,30,30.34,29.93,29.70,10,9,2,38,16,49,T,4,Snow,330
2014-1-27,19,11,2,1,-5,-8,87,61,34,30.51,30.44,30.35,10,10,10,20,6,24,0.00,1,,333
2014-1-28,26,9,-8,1,-5,-11,79,52,25,30.52,30.39,30.24,10,10,10,22,6,25,0.00,0,,317
2014-1-29,54,27,0,17,8,-7,86,54,21,30.22,29.88,29.43,10,10,10,22,9,32,0.00,2,,259
2014-1-30,44,33,21,34,19,12,84,56,28,30.04,29.76,29.38,10,8,1,26,10,36,0.05,6,Snow,9
2014-1-31,21,18,14,18,15,11,92,85,77,30.10,29.98,29.83,10,4,1,13,5,15,0.21,8,Snow,118